Time;durP1;ratioP1;P1;durP2;ratioP2;P2;SDS_P1;SDS_P2;PMS_P1;PMS_P2;Temp;Humidity;BMP_temperature;BMP_pressure;BME280_temperature;BME280_humidity;BME280_pressure;Samples;Min_cycle;Max_cycle;Signal;HPM_P1;HPM_P2
2021/12/01 00:00:37;;;;;;;1.80;1.10;;;4.70;99.90;;;;;;5057256;28;20272;-90
2021/12/01 00:03:22;;;;;;;0.97;0.97;;;4.70;99.90;;;;;;5053533;28;20179;-89
2021/12/01 00:05:49;;;;;;;1.47;0.70;;;4.80;99.90;;;;;;5057465;28;20544;-90
2021/12/01 00:08:16;;;;;;;1.60;1.00;;;4.70;99.90;;;;;;5057405;28;20222;-90
2021/12/01 00:10:42;;;;;;;1.83;1.17;;;4.70;99.90;;;;;;5057582;28;20173;-90
2021/12/01 00:13:13;;;;;;;2.20;1.00;;;4.70;99.90;;;;;;5057327;28;20229;-90
2021/12/01 00:15:40;;;;;;;7.83;1.20;;;4.70;99.90;;;;;;5057693;28;20172;-90
2021/12/01 00:18:06;;;;;;;1.93;1.23;;;4.70;99.90;;;;;;5056909;28;20216;-90
2021/12/01 00:20:33;;;;;;;2.10;1.00;;;4.70;99.90;;;;;;5056928;28;20166;-90
2021/12/01 00:22:59;;;;;;;2.87;1.10;;;4.70;99.90;;;;;;5057272;28;20273;-90
2021/12/01 00:25:31;;;;;;;1.60;1.30;;;4.70;99.90;;;;;;5057819;28;20179;-90
2021/12/01 00:27:57;;;;;;;1.30;1.10;;;4.70;99.90;;;;;;5056948;28;20218;-90
2021/12/01 00:30:23;;;;;;;1.93;0.80;;;4.70;99.90;;;;;;5056711;28;20185;-90
2021/12/01 00:32:52;;;;;;;1.47;0.97;;;4.70;99.90;;;;;;5039461;28;20188;-90
2021/12/01 00:35:18;;;;;;;1.07;0.60;;;4.70;99.90;;;;;;5037298;28;20171;-90
2021/12/01 00:37:44;;;;;;;1.43;0.77;;;4.70;99.90;;;;;;5036719;28;20260;-90
2021/12/01 00:40:12;;;;;;;0.77;0.60;;;4.70;99.90;;;;;;5036881;28;20183;-90
2021/12/01 00:42:39;;;;;;;0.60;0.60;;;4.80;99.90;;;;;;5036750;28;20186;-90
2021/12/01 00:45:28;;;;;;;0.80;0.80;;;4.80;99.90;;;;;;5036802;28;20552;-90
2021/12/01 00:47:53;;;;;;;1.13;0.77;;;4.80;99.90;;;;;;5064088;28;20247;-90
2021/12/01 00:50:36;;;;;;;0.70;0.60;;;4.90;99.90;;;;;;5056280;28;20227;-89
2021/12/01 00:53:05;;;;;;;1.37;0.70;;;4.90;99.90;;;;;;5056658;28;20647;-90
2021/12/01 00:55:32;;;;;;;0.80;0.77;;;4.90;99.90;;;;;;5056960;28;20601;-90
2021/12/01 00:57:58;;;;;;;1.43;0.70;;;4.90;99.90;;;;;;5056340;28;20205;-90
2021/12/01 01:00:29;;;;;;;1.20;0.90;;;4.90;99.90;;;;;;5052181;28;20183;-90
2021/12/01 01:03:21;;;;;;;2.83;0.80;;;4.90;99.90;;;;;;5052617;28;20191;-90
2021/12/01 01:06:25;;;;;;;0.70;0.70;;;4.90;99.90;;;;;;5069325;28;20631;-90
2021/12/01 01:09:31;;;;;;;0.80;0.70;;;4.90;99.90;;;;;;5068909;28;20205;-90
2021/12/01 01:18:34;;;;;;;9.63;6.13;;;4.90;99.90;;;;;;5052229;28;20220;-90
2021/12/01 01:21:39;;;;;;;12.33;5.60;;;4.80;99.90;;;;;;5069248;28;20169;-90
2021/12/01 01:27:53;;;;;;;8.23;4.50;;;4.80;99.90;;;;;;5052166;28;20222;-90
2021/12/01 01:30:42;;;;;;;6.40;4.10;;;4.80;99.90;;;;;;5068310;28;20182;-90
2021/12/01 01:33:11;;;;;;;2.83;1.90;;;4.80;99.90;;;;;;5051889;28;20185;-90
2021/12/01 01:35:37;;;;;;;8.03;3.97;;;4.80;99.90;;;;;;5035273;28;20274;-90
2021/12/01 01:38:04;;;;;;;8.03;4.13;;;4.80;99.90;;;;;;5035239;28;20231;-91
2021/12/01 01:40:30;;;;;;;6.70;4.47;;;4.80;99.90;;;;;;5034873;28;20186;-90
2021/12/01 01:42:56;;;;;;;6.80;4.53;;;4.90;99.90;;;;;;5035384;28;20178;-90
2021/12/01 01:45:25;;;;;;;5.30;3.43;;;4.90;99.90;;;;;;5035405;28;20182;-90
2021/12/01 01:48:08;;;;;;;1.10;1.00;;;4.90;99.90;;;;;;5035216;28;20207;-90
2021/12/01 01:50:37;;;;;;;0.70;0.70;;;4.90;99.90;;;;;;5035461;28;20616;-90
2021/12/01 01:53:11;;;;;;;1.00;0.90;;;4.90;99.90;;;;;;5035513;28;20171;-90
2021/12/01 01:55:43;;;;;;;0.90;0.70;;;4.90;99.90;;;;;;5035169;28;20263;-90
2021/12/01 01:58:56;;;;;;;0.60;0.60;;;5.00;99.90;;;;;;5035036;28;20709;-89
2021/12/01 02:01:58;;;;;;;0.70;0.70;;;5.00;99.90;;;;;;5041158;28;20215;-90
2021/12/01 02:04:22;;;;;;;0.83;0.80;;;5.00;99.90;;;;;;5068437;28;20199;-90
2021/12/01 02:06:49;;;;;;;1.73;0.70;;;5.10;99.90;;;;;;5054965;28;20215;-90
2021/12/01 02:09:37;;;;;;;0.60;0.60;;;5.00;99.90;;;;;;5054619;28;20178;-90
2021/12/01 02:12:04;;;;;;;0.90;0.70;;;5.00;99.90;;;;;;5055140;28;20217;-89
2021/12/01 02:14:30;;;;;;;1.30;1.17;;;5.10;99.90;;;;;;5071616;28;20184;-90
2021/12/01 02:16:59;;;;;;;0.80;0.80;;;5.00;99.90;;;;;;5055107;28;20206;-90
2021/12/01 02:19:28;;;;;;;1.33;0.90;;;5.00;99.90;;;;;;5054482;28;20200;-90
2021/12/01 02:22:01;;;;;;;0.80;0.80;;;5.00;99.90;;;;;;5055029;28;20209;-90
2021/12/01 02:24:33;;;;;;;1.97;1.00;;;4.90;99.90;;;;;;5054957;28;20198;-90
2021/12/01 02:26:59;;;;;;;0.97;0.77;;;5.00;99.90;;;;;;5054767;28;20215;-90
2021/12/01 02:33:13;;;;;;;2.30;1.60;;;4.90;99.90;;;;;;5052762;28;20167;-90
2021/12/01 02:36:09;;;;;;;0.90;0.80;;;4.90;99.90;;;;;;5051798;28;20234;-90
2021/12/01 02:38:44;;;;;;;0.57;0.50;;;5.00;99.90;;;;;;5050910;28;20207;-90
2021/12/01 02:41:24;;;;;;;1.17;0.90;;;5.00;99.90;;;;;;5051636;28;20253;-90
2021/12/01 02:43:54;;;;;;;1.87;1.23;;;5.00;99.90;;;;;;5052623;28;20167;-90
2021/12/01 02:46:32;;;;;;;1.67;1.30;;;5.00;99.90;;;;;;5055258;28;20189;-90
2021/12/01 02:49:06;;;;;;;1.30;1.20;;;5.00;99.90;;;;;;5055232;28;20172;-90
2021/12/01 02:51:37;;;;;;;0.93;0.90;;;5.10;99.90;;;;;;5055098;28;20192;-90
2021/12/01 02:54:39;;;;;;;0.77;0.63;;;5.10;99.90;;;;;;5055241;28;20181;-90
2021/12/01 02:57:54;;;;;;;0.67;0.60;;;5.10;99.90;;;;;;5055264;28;20211;-90
2021/12/01 03:04:08;;;;;;;0.50;0.50;;;5.10;99.90;;;;;;5056046;28;20183;-90
2021/12/01 03:06:36;;;;;;;1.10;0.80;;;5.10;99.90;;;;;;5054855;28;20177;-90
2021/12/01 03:09:07;;;;;;;0.93;0.80;;;5.10;99.90;;;;;;5038055;28;20177;-90
2021/12/01 03:11:34;;;;;;;1.70;0.83;;;5.10;99.90;;;;;;5037904;28;20179;-90
2021/12/01 03:14:00;;;;;;;0.83;0.70;;;5.10;99.90;;;;;;5038423;28;20176;-90
2021/12/01 03:16:26;;;;;;;0.60;0.60;;;5.10;99.90;;;;;;5038628;28;20180;-90
2021/12/01 03:18:53;;;;;;;1.00;0.67;;;5.20;99.90;;;;;;5038361;28;20232;-90
2021/12/01 03:21:20;;;;;;;2.43;0.70;;;5.20;99.90;;;;;;5038936;28;20177;-90
2021/12/01 03:23:46;;;;;;;0.60;0.60;;;5.20;99.90;;;;;;5038178;28;20236;-90
2021/12/01 03:26:12;;;;;;;1.43;0.90;;;5.20;99.90;;;;;;5038543;28;20180;-90
2021/12/01 03:28:40;;;;;;;1.60;0.90;;;5.20;99.90;;;;;;5038058;28;20216;-90
2021/12/01 03:31:06;;;;;;;1.03;0.90;;;5.10;99.90;;;;;;5038509;28;20184;-90
2021/12/01 03:33:33;;;;;;;1.93;1.50;;;5.10;99.90;;;;;;5071679;28;20247;-90
2021/12/01 03:36:13;;;;;;;2.20;1.47;;;5.10;99.90;;;;;;5071018;28;20180;-90
2021/12/01 03:38:39;;;;;;;1.93;1.40;;;5.10;99.90;;;;;;5071175;28;20226;-90
2021/12/01 03:41:06;;;;;;;1.53;1.20;;;5.20;99.90;;;;;;5071138;28;20234;-90
2021/12/01 03:43:32;;;;;;;1.87;1.53;;;5.20;99.90;;;;;;5071614;28;20178;-90
2021/12/01 03:46:04;;;;;;;1.47;1.17;;;5.20;99.90;;;;;;5071333;28;20247;-90
2021/12/01 03:48:30;;;;;;;2.90;1.73;;;5.20;99.90;;;;;;5071107;28;20669;-92
2021/12/01 03:50:56;;;;;;;0.97;0.90;;;5.20;99.90;;;;;;5071370;28;20187;-90
2021/12/01 03:53:23;;;;;;;0.87;0.80;;;5.20;99.90;;;;;;5070946;28;20232;-90
2021/12/01 03:55:50;;;;;;;0.60;0.60;;;5.20;99.90;;;;;;5070953;28;20187;-90
2021/12/01 03:58:17;;;;;;;0.70;0.60;;;5.20;99.90;;;;;;5070744;28;20207;-90
2021/12/01 04:00:43;;;;;;;0.67;0.67;;;5.30;99.90;;;;;;5070756;28;20330;-90
2021/12/01 04:03:09;;;;;;;0.50;0.50;;;5.30;99.90;;;;;;5074401;28;20206;-90
2021/12/01 04:05:35;;;;;;;0.60;0.60;;;5.30;99.90;;;;;;5057132;28;20194;-90
2021/12/01 04:08:04;;;;;;;0.60;0.60;;;5.40;99.90;;;;;;5056498;28;20215;-90
2021/12/01 04:10:30;;;;;;;1.23;0.80;;;5.40;99.90;;;;;;5057160;28;20208;-90
2021/12/01 04:12:56;;;;;;;0.77;0.70;;;5.40;99.90;;;;;;5057524;28;20178;-90
2021/12/01 04:15:22;;;;;;;0.80;0.80;;;5.50;99.90;;;;;;5057404;28;20275;-90
2021/12/01 04:17:48;;;;;;;1.00;0.90;;;5.50;99.90;;;;;;5057278;28;20260;-90
2021/12/01 04:20:16;;;;;;;0.90;0.80;;;5.40;99.90;;;;;;5056971;28;20187;-90
2021/12/01 04:22:44;;;;;;;1.07;0.80;;;5.50;99.90;;;;;;5073745;28;20258;-90
2021/12/01 04:25:11;;;;;;;0.93;0.77;;;5.60;99.90;;;;;;5057490;28;20255;-90
2021/12/01 04:27:38;;;;;;;0.70;0.70;;;5.70;99.90;;;;;;5057272;28;20215;-90
2021/12/01 04:30:07;;;;;;;2.73;1.00;;;5.80;99.90;;;;;;5057044;28;20230;-90
2021/12/01 04:32:33;;;;;;;0.60;0.60;;;5.90;99.90;;;;;;5057280;28;20183;-90
2021/12/01 04:35:01;;;;;;;0.80;0.70;;;6.00;99.90;;;;;;5057622;28;20182;-90
2021/12/01 04:37:27;;;;;;;0.80;0.60;;;6.00;99.90;;;;;;5056989;28;20233;-90
2021/12/01 04:39:53;;;;;;;0.53;0.53;;;6.00;99.90;;;;;;5056795;28;20224;-90
2021/12/01 04:42:19;;;;;;;1.80;0.70;;;6.00;99.90;;;;;;5057203;28;20182;-90
2021/12/01 04:44:46;;;;;;;0.90;0.90;;;6.10;99.90;;;;;;5056862;28;20194;-90
2021/12/01 04:47:14;;;;;;;1.57;0.90;;;6.10;99.90;;;;;;5056883;28;20220;-90
2021/12/01 04:49:41;;;;;;;0.80;0.70;;;6.10;99.90;;;;;;5056680;28;20204;-90
2021/12/01 04:52:09;;;;;;;1.57;1.10;;;6.10;99.90;;;;;;5057160;28;20179;-89
2021/12/01 04:54:35;;;;;;;1.20;1.10;;;6.10;99.90;;;;;;5056642;28;20247;-90
2021/12/01 04:57:02;;;;;;;1.67;0.97;;;6.10;99.90;;;;;;5056413;28;20227;-90
2021/12/01 04:59:28;;;;;;;0.93;0.60;;;6.10;99.90;;;;;;5057014;28;20197;-90
2021/12/01 05:02:05;;;;;;;1.70;0.90;;;6.10;99.90;;;;;;5062578;28;20191;-90
2021/12/01 05:04:32;;;;;;;1.30;0.67;;;6.10;99.90;;;;;;5036477;28;20203;-90
2021/12/01 05:06:58;;;;;;;1.43;0.60;;;6.10;99.90;;;;;;5035581;28;20213;-90
2021/12/01 05:09:24;;;;;;;0.60;0.60;;;6.10;99.90;;;;;;5036227;28;20184;-90
2021/12/01 05:11:50;;;;;;;0.50;0.50;;;6.10;99.90;;;;;;5039824;28;20180;-90
2021/12/01 05:14:16;;;;;;;0.73;0.40;;;6.10;99.90;;;;;;5069818;28;20185;-90
2021/12/01 05:16:43;;;;;;;1.10;0.80;;;6.20;99.90;;;;;;5069710;28;20231;-90
2021/12/01 05:19:10;;;;;;;0.83;0.60;;;6.20;99.90;;;;;;5072527;28;20722;-90
2021/12/01 05:21:36;;;;;;;0.60;0.60;;;6.30;99.90;;;;;;5056186;28;20180;-90
2021/12/01 05:24:03;;;;;;;0.83;0.53;;;6.30;99.90;;;;;;5056103;28;20645;-90
2021/12/01 05:26:29;;;;;;;0.40;0.40;;;6.30;99.90;;;;;;5055849;28;20670;-90
2021/12/01 05:28:55;;;;;;;0.50;0.50;;;6.40;99.90;;;;;;5055943;28;20178;-90
2021/12/01 05:31:21;;;;;;;0.60;0.50;;;6.40;99.90;;;;;;5056313;28;20267;-90
2021/12/01 05:33:47;;;;;;;0.50;0.50;;;6.40;99.90;;;;;;5056186;28;20176;-90
2021/12/01 05:36:13;;;;;;;0.50;0.50;;;6.50;99.90;;;;;;5055795;28;20194;-90
2021/12/01 05:38:39;;;;;;;0.60;0.50;;;6.50;99.90;;;;;;5055487;28;20212;-90
2021/12/01 05:41:05;;;;;;;0.60;0.60;;;6.40;99.90;;;;;;5056100;28;20181;-90
2021/12/01 05:43:31;;;;;;;0.50;0.50;;;6.40;99.90;;;;;;5056184;28;20188;-90
2021/12/01 05:45:57;;;;;;;0.40;0.40;;;6.40;99.90;;;;;;5055735;28;20184;-90
2021/12/01 05:48:26;;;;;;;0.50;0.50;;;6.40;99.90;;;;;;5053210;28;20218;-90
2021/12/01 05:50:52;;;;;;;0.50;0.50;;;6.40;99.90;;;;;;5044940;28;20177;-90
2021/12/01 05:53:22;;;;;;;0.40;0.40;;;6.40;99.90;;;;;;5056704;28;20180;-90
2021/12/01 05:55:51;;;;;;;0.50;0.50;;;6.40;99.90;;;;;;5071895;28;20184;-90
2021/12/01 05:58:26;;;;;;;0.57;0.50;;;6.40;99.90;;;;;;5073295;28;20213;-90
2021/12/01 06:01:21;;;;;;;1.13;0.53;;;6.50;99.90;;;;;;5049565;28;20190;-90
2021/12/01 06:03:48;;;;;;;0.90;0.50;;;6.50;99.90;;;;;;5049876;28;20179;-89
2021/12/01 06:06:14;;;;;;;0.97;0.60;;;6.60;99.90;;;;;;5049088;28;20178;-90
2021/12/01 06:08:41;;;;;;;0.60;0.50;;;6.70;99.90;;;;;;5055218;28;20241;-90
2021/12/01 06:11:08;;;;;;;0.80;0.53;;;6.70;99.90;;;;;;5054924;28;20200;-90
2021/12/01 06:13:34;;;;;;;2.00;0.50;;;6.80;99.90;;;;;;5055151;28;20218;-90
2021/12/01 06:16:28;;;;;;;0.50;0.50;;;6.80;99.90;;;;;;5055031;28;20207;-90
2021/12/01 06:18:54;;;;;;;0.77;0.60;;;6.80;99.90;;;;;;5054251;28;20217;-90
2021/12/01 06:21:20;;;;;;;0.70;0.70;;;6.80;99.90;;;;;;5055119;28;20173;-90
2021/12/01 06:23:46;;;;;;;0.93;0.93;;;6.90;99.90;;;;;;5054732;28;20282;-90
2021/12/01 06:26:12;;;;;;;1.27;0.90;;;6.80;99.90;;;;;;5055111;28;20216;-91
2021/12/01 06:28:38;;;;;;;2.03;0.70;;;6.80;99.90;;;;;;5054522;28;20228;-90
2021/12/01 06:31:04;;;;;;;0.97;0.57;;;6.80;99.90;;;;;;5074120;28;20255;-90
2021/12/01 06:33:30;;;;;;;1.73;0.60;;;6.80;99.90;;;;;;5069298;28;20184;-91
2021/12/01 06:35:56;;;;;;;1.17;0.50;;;6.90;99.90;;;;;;5054959;28;20188;-90
2021/12/01 06:38:22;;;;;;;0.80;0.40;;;6.90;99.90;;;;;;5055095;28;20193;-91
2021/12/01 06:40:48;;;;;;;1.23;0.70;;;6.90;99.90;;;;;;5054750;28;20177;-91
2021/12/01 06:43:15;;;;;;;0.50;0.50;;;6.90;99.90;;;;;;5055072;28;20180;-90
2021/12/01 06:45:40;;;;;;;0.93;0.77;;;6.90;99.90;;;;;;5055010;28;20256;-90
2021/12/01 06:48:06;;;;;;;1.27;0.60;;;6.80;99.90;;;;;;5054539;28;20328;-90
2021/12/01 06:50:33;;;;;;;1.37;1.00;;;6.80;99.90;;;;;;5054611;28;20239;-90
2021/12/01 06:52:59;;;;;;;0.60;0.50;;;6.80;99.90;;;;;;5054265;28;20626;-90
2021/12/01 06:55:25;;;;;;;2.00;0.70;;;6.80;99.90;;;;;;5054933;28;20530;-90
2021/12/01 06:57:52;;;;;;;2.43;1.30;;;6.80;99.90;;;;;;5054140;28;20255;-90
2021/12/01 07:00:19;;;;;;;1.40;1.20;;;6.80;99.90;;;;;;5054399;28;20180;-90
2021/12/01 07:02:45;;;;;;;1.87;1.30;;;6.80;99.90;;;;;;5054778;28;20185;-91
2021/12/01 07:05:12;;;;;;;0.60;0.60;;;6.80;99.90;;;;;;5055395;28;20207;-91
2021/12/01 07:07:38;;;;;;;0.83;0.70;;;6.70;99.90;;;;;;5055271;28;20217;-91
2021/12/01 07:10:10;;;;;;;1.60;0.70;;;6.70;99.90;;;;;;5054730;28;20213;-90
2021/12/01 07:12:37;;;;;;;0.70;0.70;;;6.80;99.90;;;;;;5054526;28;20188;-90
2021/12/01 07:15:04;;;;;;;2.10;0.60;;;6.80;99.90;;;;;;5054072;28;20181;-90
2021/12/01 07:17:30;;;;;;;0.70;0.70;;;6.80;99.90;;;;;;5071024;28;20215;-90
2021/12/01 07:19:55;;;;;;;1.73;0.80;;;6.80;99.90;;;;;;5053904;28;20193;-90
2021/12/01 07:22:21;;;;;;;3.73;2.13;;;6.70;99.90;;;;;;5054439;28;20555;-91
2021/12/01 07:24:47;;;;;;;2.10;1.50;;;6.70;99.90;;;;;;5054468;28;20203;-90
2021/12/01 07:27:14;;;;;;;1.50;1.00;;;6.70;99.90;;;;;;5054259;28;20575;-90
2021/12/01 07:29:45;;;;;;;1.00;0.90;;;6.70;99.90;;;;;;5054312;28;20176;-89
2021/12/01 07:32:12;;;;;;;2.07;1.20;;;6.70;99.90;;;;;;5044709;28;20193;-89
2021/12/01 07:34:42;;;;;;;1.20;1.10;;;6.70;99.90;;;;;;5037809;28;20178;-89
2021/12/01 07:37:12;;;;;;;1.40;0.80;;;6.70;99.90;;;;;;5037585;28;20262;-90
2021/12/01 07:39:38;;;;;;;1.27;0.90;;;6.80;99.90;;;;;;5037499;28;20169;-90
2021/12/01 07:45:17;;;;;;;1.60;0.90;;;6.80;99.90;;;;;;5054322;28;20177;-90
2021/12/01 07:47:44;;;;;;;2.60;1.23;;;6.80;99.90;;;;;;5037616;28;20213;-90
2021/12/01 07:50:10;;;;;;;2.93;1.30;;;6.80;99.90;;;;;;5037294;28;20182;-90
2021/12/01 07:52:38;;;;;;;1.70;1.27;;;6.90;99.90;;;;;;5037318;28;20185;-90
2021/12/01 07:55:06;;;;;;;1.37;1.07;;;7.00;99.90;;;;;;5037553;28;20181;-89
2021/12/01 07:57:32;;;;;;;1.27;1.00;;;7.00;99.90;;;;;;5037022;28;20201;-90
2021/12/01 07:59:58;;;;;;;2.57;1.40;;;7.10;99.90;;;;;;5037399;28;20181;-90
2021/12/01 08:02:24;;;;;;;2.70;1.20;;;7.10;99.90;;;;;;5037173;28;20263;-90
2021/12/01 08:04:51;;;;;;;2.13;1.20;;;7.10;99.90;;;;;;5037427;28;20636;-90
2021/12/01 08:07:16;;;;;;;1.73;0.93;;;7.20;99.90;;;;;;5036791;28;20224;-90
2021/12/01 08:09:42;;;;;;;1.03;0.83;;;7.20;99.90;;;;;;5036774;28;20175;-90
2021/12/01 08:12:11;;;;;;;3.43;1.00;;;7.30;99.90;;;;;;5037466;28;20190;-90
2021/12/01 08:14:41;;;;;;;4.10;1.10;;;7.40;99.90;;;;;;5037191;28;20638;-90
2021/12/01 08:17:07;;;;;;;1.43;0.70;;;7.40;99.90;;;;;;5037166;28;20213;-90
2021/12/01 08:19:33;;;;;;;0.73;0.73;;;7.50;99.90;;;;;;5036836;28;20185;-90
2021/12/01 08:21:59;;;;;;;0.73;0.60;;;7.50;99.90;;;;;;5037151;28;20189;-90
2021/12/01 08:24:25;;;;;;;1.50;0.90;;;7.60;99.90;;;;;;5037018;28;20185;-90
2021/12/01 08:26:51;;;;;;;1.13;1.00;;;7.60;99.90;;;;;;5036742;28;20213;-90
2021/12/01 08:29:18;;;;;;;2.13;1.47;;;7.60;99.90;;;;;;5036703;28;20185;-90
2021/12/01 08:31:44;;;;;;;1.23;1.03;;;7.60;99.90;;;;;;5045323;28;20188;-90
2021/12/01 08:34:11;;;;;;;1.10;0.97;;;7.60;99.90;;;;;;5056375;28;20223;-90
2021/12/01 08:36:37;;;;;;;1.00;0.90;;;7.60;99.90;;;;;;5056389;28;20177;-90
2021/12/01 08:39:04;;;;;;;1.00;0.80;;;7.60;99.90;;;;;;5057793;28;20177;-84
2021/12/01 08:41:31;;;;;;;0.80;0.60;;;7.60;99.90;;;;;;5056746;28;20180;-88
2021/12/01 08:44:24;;;;;;;0.50;0.50;;;7.70;99.90;;;;;;5056167;28;20196;-88
2021/12/01 08:46:50;;;;;;;0.50;0.50;;;7.70;99.90;;;;;;5056206;28;20197;-90
2021/12/01 08:49:35;;;;;;;2.40;1.30;;;7.80;99.90;;;;;;5055972;28;20184;-89
2021/12/01 08:52:01;;;;;;;1.83;1.03;;;7.90;99.90;;;;;;5056381;28;20261;-90
2021/12/01 08:54:27;;;;;;;2.50;0.97;;;7.90;99.90;;;;;;5054138;28;20268;-90
2021/12/01 08:56:53;;;;;;;4.77;2.73;;;8.00;99.90;;;;;;5052901;28;20198;-90
2021/12/01 08:59:19;;;;;;;4.50;2.27;;;7.90;99.90;;;;;;5044517;28;20184;-89
2021/12/01 09:01:45;;;;;;;1.57;1.00;;;7.90;99.90;;;;;;5042009;28;20200;-90
2021/12/01 09:04:11;;;;;;;1.30;1.00;;;7.90;99.90;;;;;;5036246;28;20272;-90
2021/12/01 09:06:37;;;;;;;1.47;1.10;;;7.90;99.90;;;;;;5036474;28;20277;-89
2021/12/01 09:09:05;;;;;;;2.33;0.80;;;7.80;99.90;;;;;;5053274;28;20178;-89
2021/12/01 09:11:31;;;;;;;1.00;0.80;;;7.90;99.90;;;;;;5056314;28;20180;-89
2021/12/01 09:13:57;;;;;;;1.10;1.00;;;7.90;99.90;;;;;;5055879;28;20178;-90
2021/12/01 09:16:23;;;;;;;0.80;0.70;;;7.90;99.90;;;;;;5056055;28;20170;-90
2021/12/01 09:18:49;;;;;;;1.83;1.00;;;8.00;99.90;;;;;;5055251;28;20704;-90
2021/12/01 09:21:15;;;;;;;1.20;1.10;;;8.00;99.90;;;;;;5055879;28;20177;-90
2021/12/01 09:23:41;;;;;;;1.33;0.90;;;8.00;99.90;;;;;;5041625;28;20186;-90
2021/12/01 09:26:08;;;;;;;1.03;0.63;;;8.10;99.90;;;;;;5035509;28;20192;-90
2021/12/01 09:28:34;;;;;;;0.77;0.67;;;8.30;99.90;;;;;;5035323;28;20213;-90
2021/12/01 09:31:00;;;;;;;0.87;0.70;;;8.40;99.90;;;;;;5038779;28;20213;-90
2021/12/01 09:33:28;;;;;;;1.20;0.87;;;8.40;99.90;;;;;;5044532;28;20254;-90
2021/12/01 09:35:57;;;;;;;1.20;0.80;;;8.40;99.90;;;;;;5036066;28;20632;-90
2021/12/01 09:38:24;;;;;;;1.83;1.10;;;8.40;99.90;;;;;;5050882;28;20209;-90
2021/12/01 09:40:52;;;;;;;1.23;1.03;;;8.40;99.90;;;;;;5050053;28;20180;-90
2021/12/01 09:43:25;;;;;;;2.00;1.40;;;8.40;99.90;;;;;;5055379;28;20182;-89
2021/12/01 09:45:52;;;;;;;3.47;1.40;;;8.40;99.90;;;;;;5071646;28;20205;-89
2021/12/01 09:48:19;;;;;;;3.30;1.50;;;8.50;99.90;;;;;;5049860;28;20220;-90
2021/12/01 09:50:46;;;;;;;3.33;1.73;;;8.50;99.90;;;;;;5054998;28;20219;-90
2021/12/01 09:53:16;;;;;;;2.60;1.93;;;8.60;99.90;;;;;;5055537;28;20213;-90
2021/12/01 09:55:43;;;;;;;2.97;1.87;;;8.80;99.90;;;;;;5062054;28;20193;-90
2021/12/01 09:58:16;;;;;;;1.50;1.20;;;8.90;99.90;;;;;;5035905;28;20206;-90
2021/12/01 10:00:52;;;;;;;1.53;1.20;;;9.00;99.90;;;;;;5037302;28;20264;-90
2021/12/01 10:03:20;;;;;;;1.70;1.10;;;9.10;99.90;;;;;;5037608;28;20585;-90
2021/12/01 10:06:29;;;;;;;2.00;1.40;;;9.20;99.90;;;;;;5035266;28;20186;-90
2021/12/01 10:09:01;;;;;;;1.90;1.30;;;9.20;99.90;;;;;;5060118;28;20204;-89
2021/12/01 10:11:42;;;;;;;1.57;1.20;;;9.30;99.90;;;;;;5073814;28;20222;-90
2021/12/01 10:14:15;;;;;;;1.33;0.60;;;9.40;99.90;;;;;;5042642;28;20174;-90
2021/12/01 10:16:43;;;;;;;2.93;1.10;;;9.40;99.90;;;;;;5051908;28;20176;-90
2021/12/01 10:19:16;;;;;;;1.87;0.97;;;9.30;99.90;;;;;;5035270;28;20193;-89
2021/12/01 10:21:48;;;;;;;3.13;1.30;;;9.30;99.90;;;;;;5035773;28;20172;-90
2021/12/01 10:24:19;;;;;;;0.60;0.60;;;9.30;99.90;;;;;;5035282;28;20173;-90
2021/12/01 10:26:54;;;;;;;1.13;0.90;;;9.20;99.90;;;;;;5035263;28;20186;-90
2021/12/01 10:29:27;;;;;;;1.07;0.93;;;9.20;99.90;;;;;;5034897;28;20174;-90
2021/12/01 10:32:03;;;;;;;0.80;0.80;;;9.20;99.90;;;;;;5035990;28;20291;-90
2021/12/01 10:34:43;;;;;;;1.40;1.00;;;9.10;99.90;;;;;;5034996;28;20177;-89
2021/12/01 10:37:29;;;;;;;2.07;1.20;;;9.10;99.90;;;;;;5035130;28;20209;-90
2021/12/01 10:40:16;;;;;;;1.00;0.90;;;9.10;99.90;;;;;;5034457;28;20189;-90
2021/12/01 10:43:07;;;;;;;3.20;1.10;;;9.10;99.90;;;;;;5048499;28;20181;-90
2021/12/01 10:45:42;;;;;;;1.50;1.20;;;9.10;99.90;;;;;;5055105;28;20244;-90
2021/12/01 10:48:22;;;;;;;1.10;1.00;;;9.00;99.90;;;;;;5048992;28;20208;-90
2021/12/01 10:50:49;;;;;;;1.90;1.30;;;9.00;99.90;;;;;;5045686;28;20197;-90
2021/12/01 10:53:18;;;;;;;2.90;1.10;;;8.90;99.90;;;;;;5051559;28;20257;-90
2021/12/01 10:55:52;;;;;;;2.20;1.13;;;8.90;99.90;;;;;;5035102;28;20174;-90
2021/12/01 10:58:21;;;;;;;1.37;0.90;;;8.80;99.90;;;;;;5055080;28;20274;-90
2021/12/01 11:00:53;;;;;;;3.20;1.53;;;8.80;99.90;;;;;;5070167;28;20181;-90
2021/12/01 11:03:24;;;;;;;1.53;0.87;;;8.90;99.90;;;;;;5037803;28;20634;-90
2021/12/01 11:06:07;;;;;;;2.67;1.20;;;9.00;99.90;;;;;;5043959;28;20220;-90
2021/12/01 11:08:41;;;;;;;1.37;0.93;;;9.10;99.90;;;;;;5043397;28;20248;-90
2021/12/01 11:11:15;;;;;;;0.70;0.70;;;9.20;99.90;;;;;;5059112;28;20173;-90
2021/12/01 11:13:44;;;;;;;1.43;1.10;;;9.30;99.90;;;;;;5058505;28;20165;-90
2021/12/01 11:16:12;;;;;;;1.47;1.20;;;9.30;99.90;;;;;;5058405;28;20178;-90
2021/12/01 11:18:43;;;;;;;1.37;1.03;;;9.40;99.90;;;;;;5055493;28;20275;-90
2021/12/01 11:21:19;;;;;;;1.57;1.00;;;9.40;99.90;;;;;;5037922;28;20184;-90
2021/12/01 11:24:02;;;;;;;1.10;1.00;;;9.40;99.90;;;;;;5038647;28;20189;-91
2021/12/01 11:26:35;;;;;;;0.80;0.80;;;9.40;99.90;;;;;;5047842;28;20188;-91
2021/12/01 11:29:08;;;;;;;1.27;1.00;;;9.30;99.90;;;;;;5058751;28;20208;-90
2021/12/01 11:31:42;;;;;;;1.60;1.07;;;9.40;99.90;;;;;;5065233;28;20182;-92
2021/12/01 11:34:17;;;;;;;1.47;0.93;;;9.40;99.90;;;;;;5039086;28;20173;-86
2021/12/01 11:36:47;;;;;;;1.80;1.10;;;9.40;99.90;;;;;;5040870;28;20170;-77
2021/12/01 11:39:21;;;;;;;2.37;1.47;;;9.30;99.90;;;;;;5058690;28;20185;-90
2021/12/01 11:41:49;;;;;;;1.33;1.00;;;9.30;99.90;;;;;;5058497;28;20176;-90
2021/12/01 11:44:18;;;;;;;1.40;1.10;;;9.30;99.90;;;;;;5042637;28;20279;-90
2021/12/01 11:46:47;;;;;;;3.30;1.07;;;9.20;99.90;;;;;;5038061;28;20206;-90
2021/12/01 11:49:15;;;;;;;1.00;0.90;;;9.20;99.90;;;;;;5037920;28;20181;-90
2021/12/01 11:51:57;;;;;;;2.13;1.00;;;9.10;99.90;;;;;;5037790;28;20170;-90
2021/12/01 11:54:24;;;;;;;1.30;1.20;;;9.00;99.90;;;;;;5055203;28;20197;-89
2021/12/01 11:57:02;;;;;;;2.17;1.63;;;8.90;99.90;;;;;;5057636;28;20189;-90
2021/12/01 11:59:47;;;;;;;3.53;1.30;;;8.90;99.90;;;;;;5057697;28;20180;-90
2021/12/01 12:02:16;;;;;;;2.23;1.53;;;8.80;99.90;;;;;;5061343;28;20186;-90
2021/12/01 12:04:48;;;;;;;1.80;1.00;;;8.80;99.90;;;;;;5037703;28;20178;-91
2021/12/01 12:07:21;;;;;;;1.87;1.20;;;8.70;99.90;;;;;;5037334;28;20205;-90
2021/12/01 12:10:22;;;;;;;1.80;1.20;;;8.80;99.90;;;;;;5036763;28;20189;-90
2021/12/01 12:13:01;;;;;;;3.37;1.80;;;8.80;99.90;;;;;;5036753;28;20186;-90
2021/12/01 12:15:50;;;;;;;2.57;1.57;;;8.70;99.90;;;;;;5036995;28;20173;-90
2021/12/01 12:18:38;;;;;;;1.53;1.20;;;8.80;99.90;;;;;;5036204;28;20213;-90
2021/12/01 12:21:13;;;;;;;2.83;1.30;;;8.70;99.90;;;;;;5036728;28;20170;-90
2021/12/01 12:23:39;;;;;;;1.73;1.30;;;8.80;99.90;;;;;;5036426;28;20185;-90
2021/12/01 12:26:10;;;;;;;3.53;1.47;;;8.80;99.90;;;;;;5037233;28;20228;-90
2021/12/01 12:28:40;;;;;;;3.20;1.20;;;8.80;99.90;;;;;;5036789;28;20214;-90
2021/12/01 12:31:18;;;;;;;1.60;1.20;;;8.80;99.90;;;;;;5040990;28;20189;-90
2021/12/01 12:33:57;;;;;;;1.73;1.20;;;8.80;99.90;;;;;;5056644;28;20157;-90
2021/12/01 12:36:41;;;;;;;1.07;0.90;;;8.80;99.90;;;;;;5057342;28;20207;-90
2021/12/01 12:39:22;;;;;;;2.67;1.63;;;8.80;99.90;;;;;;5056543;28;20212;-90
2021/12/01 12:42:12;;;;;;;4.13;1.60;;;8.80;99.90;;;;;;5056501;28;20185;-90
2021/12/01 12:44:50;;;;;;;3.47;2.03;;;8.80;99.90;;;;;;5056646;28;20178;-90
2021/12/01 12:47:39;;;;;;;3.97;2.40;;;8.90;99.90;;;;;;5056615;28;20209;-90
2021/12/01 12:50:21;;;;;;;2.53;1.50;;;8.90;99.90;;;;;;5056152;28;20176;-90
2021/12/01 12:52:50;;;;;;;4.47;1.60;;;8.90;99.90;;;;;;5056679;28;20178;-90
2021/12/01 12:55:15;;;;;;;4.37;2.30;;;8.80;99.90;;;;;;5056701;28;20173;-90
2021/12/01 12:57:57;;;;;;;3.37;1.60;;;8.80;99.90;;;;;;5056594;28;20197;-90
2021/12/01 13:00:34;;;;;;;3.13;1.60;;;8.80;99.90;;;;;;5056402;28;20181;-90
2021/12/01 13:03:22;;;;;;;2.43;1.20;;;8.80;99.90;;;;;;5037601;28;20190;-90
2021/12/01 13:06:06;;;;;;;2.77;1.43;;;8.80;99.90;;;;;;5036934;28;20182;-90
2021/12/01 13:08:38;;;;;;;1.40;1.20;;;8.80;99.90;;;;;;5036550;28;20218;-90
2021/12/01 13:11:10;;;;;;;1.80;1.30;;;8.80;99.90;;;;;;5036632;28;20181;-90
2021/12/01 13:13:47;;;;;;;1.47;1.37;;;8.70;99.90;;;;;;5036398;28;20170;-90
2021/12/01 13:16:18;;;;;;;7.30;3.03;;;8.70;99.90;;;;;;5037154;28;20235;-90
2021/12/01 13:18:47;;;;;;;3.53;2.00;;;8.70;99.90;;;;;;5036029;28;20575;-90
2021/12/01 13:21:16;;;;;;;1.83;1.33;;;8.70;99.90;;;;;;5035822;28;20186;-90
2021/12/01 13:23:49;;;;;;;2.47;1.50;;;8.70;99.90;;;;;;5036354;28;20177;-90
2021/12/01 13:26:17;;;;;;;1.70;1.23;;;8.70;99.90;;;;;;5036095;28;20208;-91
2021/12/01 13:28:52;;;;;;;1.50;1.17;;;8.70;99.90;;;;;;5034587;28;20206;-90
2021/12/01 13:31:22;;;;;;;2.57;1.50;;;8.60;99.90;;;;;;5041148;28;20661;-91
2021/12/01 13:34:00;;;;;;;1.80;1.17;;;8.60;99.90;;;;;;5055555;28;20211;-90
2021/12/01 13:36:32;;;;;;;1.90;1.20;;;8.60;99.90;;;;;;5055580;28;20177;-90
2021/12/01 13:39:12;;;;;;;1.30;1.20;;;8.50;99.90;;;;;;5055035;28;20688;-91